Time;durP1;ratioP1;P1;durP2;ratioP2;P2;SDS_P1;SDS_P2;PMS_P1;PMS_P2;Temp;Humidity;BMP_temperature;BMP_pressure;BME280_temperature;BME280_humidity;BME280_pressure;Samples;Min_cycle;Max_cycle;Signal;HPM_P1;HPM_P2
2022/08/21 00:00:19;;;;;;;3.17;2.70;;;15.40;99.90;;;;;;5030969;28;20186;-86
2022/08/21 00:02:52;;;;;;;2.53;2.30;;;15.40;99.90;;;;;;5031225;28;20198;-86
2022/08/21 00:05:19;;;;;;;3.63;2.70;;;15.30;99.90;;;;;;5015112;28;20185;-86
2022/08/21 00:07:44;;;;;;;3.23;2.93;;;15.30;99.90;;;;;;5035321;28;20206;-87
2022/08/21 00:10:11;;;;;;;3.83;2.90;;;15.10;99.90;;;;;;5034799;28;20246;-86
2022/08/21 00:12:37;;;;;;;4.10;2.67;;;15.00;99.90;;;;;;5034823;28;20191;-86
2022/08/21 00:15:06;;;;;;;3.23;2.93;;;15.00;99.90;;;;;;5034999;28;20269;-87
2022/08/21 00:17:32;;;;;;;4.93;2.77;;;15.00;99.90;;;;;;5034830;28;20658;-86
2022/08/21 00:19:58;;;;;;;3.87;2.60;;;15.00;99.90;;;;;;5034580;28;20187;-86
2022/08/21 00:22:24;;;;;;;2.80;2.47;;;15.00;99.90;;;;;;5018486;28;20214;-86
2022/08/21 00:24:50;;;;;;;3.30;2.73;;;15.00;99.90;;;;;;5034739;28;20190;-87
2022/08/21 00:27:39;;;;;;;4.83;2.70;;;14.90;99.90;;;;;;5034347;28;20214;-86
2022/08/21 00:30:35;;;;;;;3.03;2.53;;;14.90;99.90;;;;;;5034256;28;20191;-86
2022/08/21 00:33:02;;;;;;;3.87;2.90;;;14.80;99.90;;;;;;5034568;28;20269;-86
2022/08/21 00:35:32;;;;;;;4.87;2.63;;;14.80;99.90;;;;;;5018128;28;20209;-87
2022/08/21 00:37:58;;;;;;;2.83;2.57;;;14.80;99.90;;;;;;5034348;28;20190;-86
2022/08/21 00:40:32;;;;;;;3.30;2.67;;;14.80;99.90;;;;;;5034497;28;20258;-86
2022/08/21 00:42:58;;;;;;;3.47;2.77;;;14.80;99.90;;;;;;5034528;28;20191;-86
2022/08/21 00:45:25;;;;;;;2.90;2.60;;;14.80;99.90;;;;;;5034276;28;20189;-86
2022/08/21 00:47:53;;;;;;;3.23;2.93;;;14.80;99.90;;;;;;5034210;28;20298;-86
2022/08/21 00:50:20;;;;;;;2.83;2.63;;;14.70;99.90;;;;;;5033977;28;20210;-86
2022/08/21 00:52:46;;;;;;;3.83;2.93;;;14.60;99.90;;;;;;5034147;28;20203;-86
2022/08/21 00:55:13;;;;;;;3.57;2.70;;;14.60;99.90;;;;;;5033871;28;20170;-86
2022/08/21 00:57:49;;;;;;;6.03;2.87;;;14.60;99.90;;;;;;5034007;28;20179;-86
2022/08/21 01:00:19;;;;;;;2.70;2.50;;;14.60;99.90;;;;;;5033837;28;20205;-86
2022/08/21 01:02:45;;;;;;;4.30;3.20;;;14.60;99.90;;;;;;5034196;28;20232;-86
2022/08/21 01:05:12;;;;;;;3.80;2.90;;;14.60;99.90;;;;;;5033855;28;20269;-86
2022/08/21 01:07:44;;;;;;;6.07;2.93;;;14.60;99.90;;;;;;5034037;28;20240;-86
2022/08/21 01:10:12;;;;;;;3.40;2.90;;;14.60;99.90;;;;;;5034036;28;20192;-86
2022/08/21 01:12:39;;;;;;;6.90;3.00;;;14.50;99.90;;;;;;5035071;28;20190;-86
2022/08/21 01:15:07;;;;;;;6.53;3.17;;;14.50;99.90;;;;;;5033818;28;20179;-86
2022/08/21 01:17:33;;;;;;;3.57;3.03;;;14.60;99.90;;;;;;5033994;28;20198;-86
2022/08/21 01:20:00;;;;;;;2.97;2.73;;;14.50;99.90;;;;;;5033516;28;20193;-86
2022/08/21 01:22:27;;;;;;;4.87;3.10;;;14.50;99.90;;;;;;5017371;28;20202;-86
2022/08/21 01:24:52;;;;;;;3.30;3.00;;;14.50;99.90;;;;;;5033658;28;20179;-86
2022/08/21 01:27:19;;;;;;;3.33;3.03;;;14.50;99.90;;;;;;5033676;28;20276;-86
2022/08/21 01:29:53;;;;;;;4.20;3.27;;;14.60;99.90;;;;;;5033367;28;20177;-86
2022/08/21 01:32:20;;;;;;;3.87;2.80;;;14.60;99.90;;;;;;5032652;28;20662;-86
2022/08/21 01:34:49;;;;;;;3.50;2.80;;;14.60;99.90;;;;;;5031983;28;20171;-86
2022/08/21 01:37:15;;;;;;;3.20;2.90;;;14.60;99.90;;;;;;5016970;28;20221;-86
2022/08/21 01:39:42;;;;;;;4.00;2.93;;;14.60;99.90;;;;;;5033340;28;20178;-86
2022/08/21 01:42:08;;;;;;;3.53;2.73;;;14.60;99.90;;;;;;5033253;28;20206;-86
2022/08/21 01:44:45;;;;;;;4.30;2.97;;;14.60;99.90;;;;;;5033489;28;20189;-86
2022/08/21 01:47:14;;;;;;;3.33;2.87;;;14.60;99.90;;;;;;5033389;28;20233;-86
2022/08/21 01:49:40;;;;;;;3.17;2.87;;;14.60;99.90;;;;;;5033052;28;20175;-86
2022/08/21 01:52:06;;;;;;;7.03;3.57;;;14.60;99.90;;;;;;5032718;28;20206;-86
2022/08/21 01:54:32;;;;;;;3.40;2.80;;;14.50;99.90;;;;;;5033415;28;20269;-86
2022/08/21 01:56:59;;;;;;;5.00;3.90;;;14.50;99.90;;;;;;5033341;28;20174;-86
2022/08/21 01:59:26;;;;;;;3.70;3.40;;;14.50;99.90;;;;;;5032874;28;20185;-86
2022/08/21 02:01:53;;;;;;;3.80;3.40;;;14.50;99.90;;;;;;5032596;28;20285;-86
2022/08/21 02:04:20;;;;;;;4.00;3.20;;;14.50;99.90;;;;;;5032934;28;20182;-86
2022/08/21 02:06:47;;;;;;;5.13;3.40;;;14.50;99.90;;;;;;5016546;28;20228;-87
2022/08/21 02:09:14;;;;;;;5.83;3.17;;;14.40;99.90;;;;;;5032871;28;20178;-86
2022/08/21 02:11:40;;;;;;;4.20;3.73;;;14.30;99.90;;;;;;5016051;28;20175;-86
2022/08/21 02:14:07;;;;;;;4.40;3.30;;;14.30;99.90;;;;;;5032982;28;20221;-86
2022/08/21 02:16:34;;;;;;;3.50;3.10;;;14.40;99.90;;;;;;5032979;28;20181;-86
2022/08/21 02:19:00;;;;;;;4.87;3.17;;;14.30;99.90;;;;;;5032738;28;20178;-86
2022/08/21 02:21:26;;;;;;;3.17;2.93;;;14.30;99.90;;;;;;5032238;28;20206;-86
2022/08/21 02:23:52;;;;;;;3.80;2.80;;;14.30;99.90;;;;;;5032475;28;20178;-86
2022/08/21 02:26:18;;;;;;;6.30;2.80;;;14.20;99.90;;;;;;5032573;28;20205;-86
2022/08/21 02:28:44;;;;;;;3.37;2.77;;;14.00;99.90;;;;;;5015580;28;20221;-86
2022/08/21 02:31:10;;;;;;;4.20;2.93;;;14.00;99.90;;;;;;5032173;28;20182;-86
2022/08/21 02:33:36;;;;;;;3.33;3.03;;;14.00;99.90;;;;;;5032340;28;20206;-86
2022/08/21 02:36:03;;;;;;;4.27;3.13;;;14.00;99.90;;;;;;5032368;28;20179;-86
2022/08/21 02:38:33;;;;;;;3.00;2.77;;;14.00;99.90;;;;;;5032323;28;20188;-86
2022/08/21 02:40:59;;;;;;;3.10;2.67;;;14.00;99.90;;;;;;5032091;28;20201;-86
2022/08/21 02:43:27;;;;;;;6.33;4.00;;;14.00;99.90;;;;;;5015563;28;20198;-86
2022/08/21 02:45:55;;;;;;;3.60;3.17;;;14.00;99.90;;;;;;5032200;28;20206;-86
2022/08/21 02:48:24;;;;;;;4.37;3.47;;;13.90;99.90;;;;;;5031839;28;20202;-86
2022/08/21 02:51:02;;;;;;;4.03;3.40;;;13.90;99.90;;;;;;5031477;28;20198;-86
2022/08/21 02:53:29;;;;;;;3.30;3.00;;;13.80;99.90;;;;;;5031767;28;20194;-86
2022/08/21 02:55:58;;;;;;;3.97;3.30;;;13.80;99.90;;;;;;5031596;28;20233;-86
2022/08/21 02:58:27;;;;;;;3.67;3.37;;;13.80;99.90;;;;;;5015445;28;20190;-86
2022/08/21 03:00:54;;;;;;;3.50;3.17;;;13.80;99.90;;;;;;5032700;28;20205;-86
2022/08/21 03:03:20;;;;;;;3.30;3.00;;;13.70;99.90;;;;;;5031742;28;20221;-86
2022/08/21 03:05:47;;;;;;;5.57;3.20;;;13.70;99.90;;;;;;5031942;28;20203;-86
2022/08/21 03:08:14;;;;;;;6.13;3.10;;;13.60;99.90;;;;;;5031995;28;20214;-86
2022/08/21 03:10:43;;;;;;;6.27;3.30;;;13.50;99.90;;;;;;5031144;28;20204;-86
2022/08/21 03:13:10;;;;;;;4.33;3.80;;;13.50;99.90;;;;;;5015118;28;20202;-86
2022/08/21 03:15:37;;;;;;;3.60;3.30;;;13.50;99.90;;;;;;5015287;28;20193;-86
2022/08/21 03:18:04;;;;;;;5.20;3.50;;;13.50;99.90;;;;;;5015126;28;20217;-86
2022/08/21 03:20:32;;;;;;;3.20;2.90;;;13.40;99.90;;;;;;5031665;28;20650;-86
2022/08/21 03:22:59;;;;;;;4.63;3.30;;;13.30;99.90;;;;;;5032696;28;20245;-86
2022/08/21 03:25:26;;;;;;;4.30;3.77;;;13.40;99.90;;;;;;5031621;28;20178;-86
2022/08/21 03:27:53;;;;;;;3.87;3.23;;;13.40;99.90;;;;;;5031723;28;20667;-86
2022/08/21 03:30:20;;;;;;;3.73;3.10;;;13.40;99.90;;;;;;5031266;28;20224;-86
2022/08/21 03:32:47;;;;;;;3.73;3.33;;;13.50;99.90;;;;;;5031250;28;20204;-86
2022/08/21 03:35:14;;;;;;;4.33;3.27;;;13.50;99.90;;;;;;5030476;28;20175;-86
2022/08/21 03:37:40;;;;;;;4.57;3.10;;;13.50;99.90;;;;;;5014760;28;20218;-86
2022/08/21 03:40:08;;;;;;;3.70;3.10;;;13.50;99.90;;;;;;5030763;28;20182;-86
2022/08/21 03:42:34;;;;;;;4.23;3.13;;;13.50;99.90;;;;;;5035075;28;20213;-86
2022/08/21 03:45:00;;;;;;;5.20;3.20;;;13.50;99.90;;;;;;5018987;28;20202;-86
2022/08/21 03:47:26;;;;;;;6.20;3.43;;;13.50;99.90;;;;;;5035297;28;20711;-86
2022/08/21 03:49:52;;;;;;;3.90;3.00;;;13.50;99.90;;;;;;5018811;28;20178;-86
2022/08/21 03:52:18;;;;;;;3.90;3.40;;;13.50;99.90;;;;;;5034982;28;20262;-86
2022/08/21 03:54:45;;;;;;;3.87;3.10;;;13.40;99.90;;;;;;5035228;28;20186;-86
2022/08/21 03:57:11;;;;;;;3.73;3.33;;;13.40;99.90;;;;;;5035227;28;20244;-86
2022/08/21 03:59:39;;;;;;;3.50;3.20;;;13.40;99.90;;;;;;5035261;28;20190;-86
2022/08/21 04:02:25;;;;;;;3.73;3.40;;;13.40;99.90;;;;;;5034480;28;20205;-86
2022/08/21 04:04:50;;;;;;;4.03;3.47;;;13.40;99.90;;;;;;5035387;28;20188;-86
2022/08/21 04:07:17;;;;;;;4.83;3.83;;;13.30;99.90;;;;;;5034890;28;20222;-86
2022/08/21 04:09:43;;;;;;;5.27;3.57;;;13.30;99.90;;;;;;5035005;28;20181;-85
2022/08/21 04:12:09;;;;;;;4.13;3.73;;;13.30;99.90;;;;;;5034608;28;20221;-86
2022/08/21 04:14:52;;;;;;;4.77;3.80;;;13.30;99.90;;;;;;5034953;28;20197;-86
2022/08/21 04:17:18;;;;;;;5.33;4.10;;;13.30;99.90;;;;;;5034870;28;20234;-86
2022/08/21 04:19:44;;;;;;;4.80;3.90;;;13.30;99.90;;;;;;5035014;28;20186;-86
2022/08/21 04:22:10;;;;;;;4.10;3.80;;;13.20;99.90;;;;;;5034421;28;20274;-86
2022/08/21 04:24:36;;;;;;;5.27;4.13;;;13.20;99.90;;;;;;5034855;28;20641;-86
2022/08/21 04:27:02;;;;;;;5.70;4.00;;;13.20;99.90;;;;;;5034523;28;20196;-86
2022/08/21 04:29:28;;;;;;;5.30;3.57;;;13.10;99.90;;;;;;5034875;28;20182;-86
2022/08/21 04:31:54;;;;;;;7.37;4.30;;;13.00;99.90;;;;;;5034314;28;20206;-86
2022/08/21 04:34:20;;;;;;;5.77;3.30;;;13.00;99.90;;;;;;5034671;28;20174;-86
2022/08/21 04:36:46;;;;;;;4.27;3.80;;;12.90;99.90;;;;;;5034744;28;20240;-86
2022/08/21 04:39:12;;;;;;;4.70;3.70;;;12.90;99.90;;;;;;5034469;28;20336;-86
2022/08/21 04:41:38;;;;;;;4.07;3.53;;;12.90;99.90;;;;;;5034196;28;20178;-86
2022/08/21 04:44:04;;;;;;;4.30;3.90;;;12.80;99.90;;;;;;5018263;28;20185;-86
2022/08/21 04:46:29;;;;;;;3.93;3.63;;;12.70;99.90;;;;;;5035481;28;20176;-86
2022/08/21 04:48:55;;;;;;;4.63;3.30;;;12.80;99.90;;;;;;5034218;28;20217;-86
2022/08/21 04:51:31;;;;;;;4.57;3.67;;;12.80;99.90;;;;;;5033909;28;20232;-86
2022/08/21 04:54:18;;;;;;;3.97;3.57;;;12.80;99.90;;;;;;5034091;28;20258;-86
2022/08/21 04:57:05;;;;;;;4.10;3.70;;;12.90;99.90;;;;;;5034031;28;20186;-86
2022/08/21 04:59:35;;;;;;;4.63;3.50;;;12.90;99.90;;;;;;5034094;28;20204;-86
2022/08/21 05:02:02;;;;;;;3.90;3.60;;;12.90;99.90;;;;;;5033685;28;20206;-86
2022/08/21 05:04:32;;;;;;;4.23;3.83;;;12.90;99.90;;;;;;5034022;28;20181;-86
2022/08/21 05:07:02;;;;;;;5.57;3.77;;;12.90;99.90;;;;;;5034126;28;20190;-86
2022/08/21 05:09:29;;;;;;;4.37;3.50;;;12.90;99.90;;;;;;5017139;28;20189;-86
2022/08/21 05:11:56;;;;;;;4.50;4.00;;;12.90;99.90;;;;;;5033632;28;20286;-86
2022/08/21 05:14:22;;;;;;;4.20;3.80;;;13.00;99.90;;;;;;5033840;28;20283;-86
2022/08/21 05:16:48;;;;;;;4.07;3.67;;;13.10;99.90;;;;;;5033822;28;20298;-86
2022/08/21 05:19:14;;;;;;;4.43;3.33;;;13.20;99.90;;;;;;5033722;28;20195;-86
2022/08/21 05:21:43;;;;;;;4.53;3.60;;;13.20;99.90;;;;;;5033409;28;20179;-86
2022/08/21 05:24:10;;;;;;;4.27;3.30;;;13.30;99.90;;;;;;5033562;28;20202;-86
2022/08/21 05:26:36;;;;;;;3.43;3.13;;;13.40;99.90;;;;;;5033523;28;20216;-86
2022/08/21 05:29:03;;;;;;;3.47;3.17;;;13.50;99.90;;;;;;5033604;28;20310;-86
2022/08/21 05:31:29;;;;;;;7.17;4.13;;;13.60;99.90;;;;;;5032820;28;20182;-86
2022/08/21 05:33:55;;;;;;;4.33;3.93;;;13.60;99.90;;;;;;5032879;28;20641;-86
2022/08/21 05:36:21;;;;;;;4.40;4.00;;;13.70;99.90;;;;;;5032239;28;20174;-86
2022/08/21 05:38:47;;;;;;;6.70;3.77;;;13.80;99.90;;;;;;5033097;28;20182;-86
2022/08/21 05:41:12;;;;;;;4.57;4.17;;;13.80;99.90;;;;;;5032750;28;20190;-86
2022/08/21 05:43:38;;;;;;;4.17;3.80;;;13.90;99.90;;;;;;5032762;28;20194;-86
2022/08/21 05:46:07;;;;;;;4.57;3.30;;;14.00;99.90;;;;;;5015729;28;20193;-86
2022/08/21 05:48:35;;;;;;;5.17;3.80;;;14.10;99.90;;;;;;5032479;28;20191;-86
2022/08/21 05:51:06;;;;;;;3.90;3.57;;;14.20;99.90;;;;;;5032307;28;20167;-86
2022/08/21 05:53:32;;;;;;;4.33;3.10;;;14.30;99.90;;;;;;5032863;28;20233;-86
2022/08/21 05:55:58;;;;;;;4.13;3.60;;;14.40;99.90;;;;;;5033026;28;20178;-86
2022/08/21 05:58:24;;;;;;;5.03;3.07;;;14.40;99.90;;;;;;5032931;28;20233;-86
2022/08/21 06:00:51;;;;;;;4.37;3.60;;;14.50;99.90;;;;;;5032928;28;20233;-86
2022/08/21 06:03:20;;;;;;;3.80;3.40;;;14.60;99.90;;;;;;5031873;28;20293;-86
2022/08/21 06:05:47;;;;;;;4.73;3.40;;;14.70;99.90;;;;;;5032940;28;20217;-86
2022/08/21 06:08:17;;;;;;;4.00;3.23;;;14.70;99.90;;;;;;5032966;28;20199;-86
2022/08/21 06:10:44;;;;;;;6.07;3.30;;;14.80;99.90;;;;;;5032553;28;20616;-86
2022/08/21 06:13:11;;;;;;;4.07;3.67;;;14.90;99.90;;;;;;5032623;28;20233;-86
2022/08/21 06:15:37;;;;;;;3.47;3.17;;;15.00;99.90;;;;;;5032991;28;20182;-86
2022/08/21 06:18:04;;;;;;;4.57;2.90;;;15.00;99.90;;;;;;5032763;28;20269;-86
2022/08/21 06:20:30;;;;;;;3.97;3.50;;;15.20;99.90;;;;;;5032605;28;20175;-86
2022/08/21 06:22:55;;;;;;;3.30;3.07;;;15.30;99.90;;;;;;5032358;28;20225;-86
2022/08/21 06:25:21;;;;;;;4.83;3.23;;;15.30;99.90;;;;;;5032596;28;20182;-86
2022/08/21 06:27:47;;;;;;;3.70;3.40;;;15.30;99.90;;;;;;5032632;28;20210;-86
2022/08/21 06:30:13;;;;;;;9.03;3.77;;;15.50;99.90;;;;;;5032231;28;20193;-86
2022/08/21 06:32:39;;;;;;;4.67;3.40;;;15.60;99.90;;;;;;5037696;28;20178;-85
2022/08/21 06:35:06;;;;;;;3.67;3.00;;;15.60;99.90;;;;;;5051070;28;20271;-86
2022/08/21 06:37:32;;;;;;;4.53;3.50;;;15.80;99.90;;;;;;5032459;28;20179;-86
2022/08/21 06:40:01;;;;;;;3.57;3.27;;;15.90;99.90;;;;;;5032327;28;20178;-86
2022/08/21 06:42:27;;;;;;;4.20;3.37;;;16.00;99.90;;;;;;5032550;28;20281;-86
2022/08/21 06:44:54;;;;;;;3.83;3.53;;;16.10;99.90;;;;;;5031858;28;20189;-86
2022/08/21 06:47:20;;;;;;;3.90;3.60;;;16.20;99.90;;;;;;5032270;28;20214;-86
2022/08/21 06:49:46;;;;;;;7.17;3.77;;;16.30;99.90;;;;;;5032013;28;20182;-86
2022/08/21 06:52:13;;;;;;;4.53;3.73;;;16.40;99.90;;;;;;5033080;28;20277;-86
2022/08/21 06:54:39;;;;;;;3.70;3.40;;;16.40;99.90;;;;;;5032045;28;20178;-86
2022/08/21 06:57:06;;;;;;;5.60;3.40;;;16.50;99.90;;;;;;5031822;28;20179;-86
2022/08/21 06:59:32;;;;;;;4.67;3.03;;;16.50;99.90;;;;;;5032187;28;20178;-86
2022/08/21 07:02:00;;;;;;;4.23;3.30;;;16.70;99.90;;;;;;5031017;28;20190;-86
2022/08/21 07:04:26;;;;;;;4.00;3.40;;;16.70;99.90;;;;;;5032063;28;20182;-86
2022/08/21 07:06:52;;;;;;;3.93;3.20;;;16.80;99.90;;;;;;5032073;28;20258;-86
2022/08/21 07:09:18;;;;;;;3.80;3.40;;;16.90;99.90;;;;;;5031646;28;20278;-86
2022/08/21 07:11:49;;;;;;;5.23;3.40;;;17.00;99.90;;;;;;5031469;28;20194;-86
2022/08/21 07:14:15;;;;;;;4.93;3.40;;;17.00;99.90;;;;;;5031493;28;20174;-86
2022/08/21 07:16:41;;;;;;;3.73;3.20;;;17.10;99.90;;;;;;5015472;28;20186;-86
2022/08/21 07:19:06;;;;;;;4.13;3.30;;;17.10;99.90;;;;;;5031631;28;20221;-86
2022/08/21 07:21:32;;;;;;;3.60;3.27;;;17.30;99.90;;;;;;5014705;28;20175;-86
2022/08/21 07:23:58;;;;;;;4.03;3.33;;;17.40;99.90;;;;;;5031574;28;20206;-86
2022/08/21 07:26:25;;;;;;;3.65;2.90;;;17.40;99.90;;;;;;5031450;28;20198;-86
2022/08/21 07:28:52;;;;;;;3.22;3.03;;;17.60;99.90;;;;;;5031506;28;20276;-86
2022/08/21 07:31:21;;;;;;;3.60;3.30;;;17.70;99.90;;;;;;5030963;28;20583;-86
2022/08/21 07:33:47;;;;;;;5.38;3.38;;;17.80;99.90;;;;;;5031622;28;20205;-86
2022/08/21 07:36:13;;;;;;;5.35;3.75;;;17.90;99.90;;;;;;5031605;28;20166;-87
2022/08/21 07:38:40;;;;;;;5.13;3.30;;;18.00;99.90;;;;;;5031798;28;20239;-86
2022/08/21 07:41:13;;;;;;;4.10;3.70;;;18.00;99.90;;;;;;5031293;28;20187;-86
2022/08/21 07:43:39;;;;;;;3.92;3.25;;;18.10;99.90;;;;;;5031603;28;20349;-86
2022/08/21 07:46:05;;;;;;;3.40;3.10;;;18.20;99.90;;;;;;5031396;28;20284;-87
2022/08/21 07:48:31;;;;;;;3.53;3.00;;;18.30;99.90;;;;;;5031522;28;20206;-86
2022/08/21 07:51:13;;;;;;;3.47;2.88;;;18.50;99.90;;;;;;5031300;28;20193;-86
2022/08/21 07:53:54;;;;;;;3.28;2.97;;;18.60;99.90;;;;;;5030924;28;20194;-86
2022/08/21 07:56:20;;;;;;;3.63;2.92;;;18.70;99.90;;;;;;5031605;28;20163;-86
2022/08/21 07:58:46;;;;;;;3.63;3.28;;;18.80;99.90;;;;;;5030958;28;20197;-86
2022/08/21 08:01:17;;;;;;;5.95;3.60;;;18.90;99.90;;;;;;5029366;28;20177;-86
2022/08/21 08:03:44;;;;;;;4.93;3.35;;;19.00;99.90;;;;;;5030478;28;20679;-86
2022/08/21 08:06:12;;;;;;;4.28;3.15;;;19.10;99.90;;;;;;5031622;28;20179;-86
2022/08/21 08:08:40;;;;;;;4.50;3.08;;;19.20;99.90;;;;;;5031548;28;20296;-87
2022/08/21 08:11:06;;;;;;;3.20;2.90;;;19.30;99.90;;;;;;5014532;28;20186;-86
2022/08/21 08:13:37;;;;;;;4.20;3.20;;;19.40;99.90;;;;;;5031231;28;20194;-86
2022/08/21 08:16:03;;;;;;;3.70;3.13;;;19.50;99.90;;;;;;5030859;28;20171;-86
2022/08/21 08:18:29;;;;;;;4.57;3.00;;;19.60;99.90;;;;;;5030766;28;20182;-87
2022/08/21 08:20:55;;;;;;;5.05;3.00;;;19.80;99.90;;;;;;5030425;28;20187;-86
2022/08/21 08:23:22;;;;;;;4.78;3.47;;;20.00;99.90;;;;;;5030926;28;20210;-86
2022/08/21 08:25:48;;;;;;;4.53;3.53;;;20.10;99.90;;;;;;5030676;28;20186;-86
2022/08/21 08:28:14;;;;;;;4.47;3.63;;;20.20;99.90;;;;;;5017462;28;20202;-87
2022/08/21 08:30:40;;;;;;;4.75;4.03;;;20.20;99.90;;;;;;5017900;28;20179;-86
2022/08/21 08:33:05;;;;;;;3.88;3.40;;;20.30;99.90;;;;;;5034679;28;20202;-87
2022/08/21 08:35:31;;;;;;;5.45;3.33;;;20.50;99.90;;;;;;5034739;28;20225;-86
2022/08/21 08:37:57;;;;;;;4.13;3.55;;;20.70;99.90;;;;;;5034928;28;20175;-87
2022/08/21 08:41:02;;;;;;;5.05;3.33;;;20.80;99.90;;;;;;5034632;28;20201;-87
2022/08/21 08:43:29;;;;;;;3.63;3.00;;;21.10;99.90;;;;;;5007325;28;20202;-87
2022/08/21 08:46:01;;;;;;;6.40;3.17;;;21.30;99.90;;;;;;5034501;28;20179;-87
2022/08/21 08:48:46;;;;;;;3.38;3.08;;;21.40;99.90;;;;;;5034660;28;20198;-87
2022/08/21 08:51:24;;;;;;;4.38;3.28;;;21.70;99.90;;;;;;5033792;28;20177;-87
2022/08/21 08:54:04;;;;;;;6.25;3.80;;;21.80;99.90;;;;;;5034009;28;20171;-87
2022/08/21 08:56:33;;;;;;;3.65;3.33;;;21.90;99.90;;;;;;5034598;28;20170;-87
2022/08/21 08:59:22;;;;;;;4.60;3.03;;;22.00;99.90;;;;;;5034450;28;20175;-87
2022/08/21 09:01:48;;;;;;;5.53;3.00;;;22.30;99.90;;;;;;5033579;28;20205;-87
2022/08/21 09:04:23;;;;;;;4.15;3.42;;;22.40;99.90;;;;;;5035562;28;20163;-87
2022/08/21 09:07:28;;;;;;;6.43;3.63;;;22.60;99.90;;;;;;5034183;28;20177;-87
2022/08/21 09:10:16;;;;;;;3.80;3.15;;;22.70;99.90;;;;;;5035159;28;20202;-87
2022/08/21 09:13:07;;;;;;;5.88;3.50;;;23.00;99.90;;;;;;5034076;28;20199;-87
2022/08/21 09:15:58;;;;;;;4.57;3.10;;;23.00;99.90;;;;;;5034030;28;20167;-87
2022/08/21 09:18:42;;;;;;;4.70;3.40;;;23.00;99.90;;;;;;5034209;28;20258;-87
2022/08/21 09:21:46;;;;;;;3.72;2.92;;;23.00;99.90;;;;;;5033359;28;20178;-87
2022/08/21 09:24:31;;;;;;;5.03;3.13;;;23.00;99.90;;;;;;5033952;28;20166;-87
2022/08/21 09:27:15;;;;;;;5.63;2.92;;;23.10;99.90;;;;;;5033841;28;20243;-87
2022/08/21 09:29:47;;;;;;;5.68;3.08;;;23.30;99.90;;;;;;5033811;28;20170;-87
2022/08/21 09:32:27;;;;;;;4.50;2.80;;;23.50;99.90;;;;;;5033853;28;20210;-87
2022/08/21 09:35:03;;;;;;;5.20;3.00;;;23.70;99.90;;;;;;5033633;28;20166;-87
2022/08/21 09:37:31;;;;;;;4.78;2.80;;;23.80;99.90;;;;;;5033690;28;20178;-87
2022/08/21 09:39:58;;;;;;;4.32;2.85;;;24.00;99.90;;;;;;5033522;28;20187;-86
2022/08/21 09:42:28;;;;;;;8.75;3.20;;;24.10;99.90;;;;;;5017207;28;20206;-86
2022/08/21 09:45:15;;;;;;;5.15;2.80;;;24.10;99.90;;;;;;5033535;28;20202;-87
2022/08/21 09:47:43;;;;;;;5.88;3.45;;;24.30;99.90;;;;;;5033485;28;20202;-87
2022/08/21 09:50:15;;;;;;;6.00;3.17;;;24.30;99.90;;;;;;5033026;28;20175;-87
2022/08/21 09:52:49;;;;;;;6.15;3.30;;;24.20;99.90;;;;;;5032968;28;20187;-87
2022/08/21 09:57:38;;;;;;;5.82;2.88;;;24.20;99.90;;;;;;5032513;28;20175;-87
2022/08/21 09:58:06;;;;;;;5.90;3.17;;;24.20;99.90;;;;;;5049933;28;20210;-87
2022/08/21 10:00:34;;;;;;;4.30;3.15;;;24.50;99.90;;;;;;5031972;28;20206;-87
2022/08/21 10:03:20;;;;;;;4.85;2.88;;;24.70;99.90;;;;;;5032891;28;20234;-87
2022/08/21 10:05:59;;;;;;;5.70;3.03;;;24.80;99.90;;;;;;5033698;28;20170;-87
2022/08/21 10:08:28;;;;;;;4.90;2.80;;;25.10;99.90;;;;;;5016572;28;20220;-87
2022/08/21 10:11:04;;;;;;;4.95;2.72;;;25.20;99.90;;;;;;5033035;28;20182;-87
2022/08/21 10:13:46;;;;;;;4.95;2.83;;;25.30;99.90;;;;;;5032908;28;20208;-87
2022/08/21 10:16:48;;;;;;;5.43;2.80;;;25.20;99.90;;;;;;5032887;28;20174;-87
2022/08/21 10:19:32;;;;;;;4.28;2.50;;;25.10;99.90;;;;;;4991716;28;20190;-87
2022/08/21 10:22:34;;;;;;;7.35;2.78;;;25.10;99.90;;;;;;5032397;28;20198;-87
2022/08/21 10:25:27;;;;;;;4.50;2.67;;;25.00;99.90;;;;;;5016619;28;20170;-87
2022/08/21 10:28:16;;;;;;;4.05;2.80;;;25.00;99.90;;;;;;5032611;28;20206;-87
2022/08/21 10:30:52;;;;;;;4.28;2.50;;;25.20;99.90;;;;;;5032508;28;20183;-87
2022/08/21 10:33:32;;;;;;;3.45;2.45;;;25.50;99.90;;;;;;5032379;28;20221;-87
2022/08/21 10:36:07;;;;;;;6.10;2.92;;;25.50;99.90;;;;;;5032715;28;20539;-87
2022/08/21 10:38:54;;;;;;;6.07;2.65;;;25.40;99.90;;;;;;5032552;28;20185;-87
2022/08/21 10:41:26;;;;;;;5.40;2.55;;;25.50;99.90;;;;;;5032558;28;20179;-87
2022/08/21 10:44:11;;;;;;;4.35;2.70;;;25.30;99.90;;;;;;5032436;28;20179;-87
2022/08/21 10:46:50;;;;;;;3.97;2.17;;;25.20;99.90;;;;;;5032188;28;20209;-87
2022/08/21 10:49:43;;;;;;;5.93;2.72;;;25.50;99.90;;;;;;5032307;28;20229;-87
2022/08/21 10:52:46;;;;;;;4.72;2.90;;;25.60;99.90;;;;;;5032179;28;20217;-87
2022/08/21 10:55:33;;;;;;;4.55;2.53;;;25.60;99.90;;;;;;5032276;28;20232;-87
2022/08/21 10:58:02;;;;;;;4.65;2.42;;;25.60;99.90;;;;;;5032388;28;20221;-87
2022/08/21 11:00:53;;;;;;;4.20;2.10;;;25.60;99.90;;;;;;5014639;28;20190;-87
2022/08/21 11:03:38;;;;;;;4.88;2.58;;;25.70;98.50;;;;;;5031814;28;20253;-87
2022/08/21 11:06:23;;;;;;;3.78;2.20;;;25.80;99.90;;;;;;5032423;28;20189;-87
2022/08/21 11:09:08;;;;;;;3.50;2.22;;;26.00;99.30;;;;;;5015591;28;20213;-87
2022/08/21 11:11:39;;;;;;;3.47;2.25;;;26.10;99.90;;;;;;5031676;28;20205;-87
2022/08/21 11:14:38;;;;;;;3.15;2.58;;;26.10;99.90;;;;;;5032058;28;20631;-87
2022/08/21 11:17:12;;;;;;;4.30;2.42;;;25.90;98.70;;;;;;5005078;28;20190;-87
2022/08/21 11:19:48;;;;;;;4.65;2.30;;;26.20;99.70;;;;;;5031764;28;20204;-87
2022/08/21 11:22:31;;;;;;;6.28;2.50;;;26.30;99.20;;;;;;5031564;28;20206;-87
2022/08/21 11:25:03;;;;;;;4.35;2.40;;;26.50;98.80;;;;;;5031809;28;20186;-87
2022/08/21 11:27:40;;;;;;;4.22;2.53;;;26.40;97.00;;;;;;5031670;28;20218;-87
2022/08/21 11:30:08;;;;;;;3.50;2.03;;;26.60;98.30;;;;;;5031667;28;20162;-87
2022/08/21 11:32:43;;;;;;;5.68;2.60;;;26.70;97.70;;;;;;5015321;28;20201;-88
2022/08/21 11:35:30;;;;;;;3.70;2.60;;;26.90;98.40;;;;;;5031682;28;20170;-87
2022/08/21 11:38:42;;;;;;;2.85;2.40;;;26.90;97.60;;;;;;5031983;28;20174;-88
2022/08/21 11:41:23;;;;;;;3.53;2.30;;;26.80;97.90;;;;;;5024133;28;20194;-87
2022/08/21 11:43:57;;;;;;;4.80;2.40;;;26.80;97.80;;;;;;5031629;28;20209;-87
2022/08/21 11:46:47;;;;;;;3.67;2.38;;;26.90;96.40;;;;;;5031746;28;20181;-87
2022/08/21 11:49:21;;;;;;;3.05;2.00;;;27.10;96.20;;;;;;5031846;28;20242;-87
2022/08/21 11:52:09;;;;;;;2.38;2.13;;;27.40;96.50;;;;;;5031245;28;20198;-87
2022/08/21 11:54:44;;;;;;;3.28;2.20;;;27.60;97.00;;;;;;5031778;28;20166;-88
2022/08/21 11:57:19;;;;;;;3.88;2.40;;;27.60;95.30;;;;;;5031675;28;20213;-87
2022/08/21 12:00:02;;;;;;;3.13;2.05;;;27.80;95.70;;;;;;5031038;28;20462;-87
2022/08/21 12:03:06;;;;;;;4.88;2.20;;;27.70;95.20;;;;;;5033510;28;20194;-87
2022/08/21 12:05:40;;;;;;;4.10;2.30;;;27.80;93.70;;;;;;5035589;28;20242;-87
2022/08/21 12:08:09;;;;;;;3.75;2.20;;;27.90;94.60;;;;;;5035385;28;20240;-87
2022/08/21 12:10:40;;;;;;;5.25;2.78;;;27.80;93.80;;;;;;5035380;28;20175;-88
2022/08/21 12:13:28;;;;;;;3.58;2.00;;;27.80;94.10;;;;;;5035275;28;20202;-88
2022/08/21 12:16:12;;;;;;;4.68;2.20;;;27.80;93.30;;;;;;5035469;28;20167;-88
2022/08/21 12:18:38;;;;;;;3.10;2.17;;;27.80;93.60;;;;;;5035179;28;20228;-88
2022/08/21 12:21:26;;;;;;;4.88;2.40;;;27.70;93.30;;;;;;5035105;28;20213;-87
2022/08/21 12:24:13;;;;;;;4.13;2.08;;;27.50;94.00;;;;;;5035051;28;20175;-87
2022/08/21 12:26:58;;;;;;;4.00;2.22;;;27.60;94.00;;;;;;5035110;28;20189;-88
2022/08/21 12:29:32;;;;;;;3.65;2.38;;;27.50;93.60;;;;;;5035263;28;20237;-87
2022/08/21 12:32:09;;;;;;;4.90;2.20;;;27.40;94.70;;;;;;5034624;28;20198;-87
2022/08/21 12:34:40;;;;;;;4.95;2.65;;;27.50;93.40;;;;;;5034701;28;20178;-87
2022/08/21 12:37:18;;;;;;;5.10;2.15;;;27.60;94.10;;;;;;5018756;28;20171;-88
2022/08/21 12:39:47;;;;;;;3.08;2.13;;;27.60;93.50;;;;;;5018679;28;20249;-87
2022/08/21 12:42:23;;;;;;;3.25;2.00;;;27.90;93.40;;;;;;5018400;28;20217;-87
2022/08/21 12:44:59;;;;;;;3.08;2.03;;;28.20;93.80;;;;;;5050878;28;20206;-87
2022/08/21 12:47:47;;;;;;;4.10;2.38;;;28.60;92.80;;;;;;5044075;28;20174;-87
2022/08/21 12:50:20;;;;;;;5.13;2.30;;;28.50;89.90;;;;;;5035594;28;20265;-87
2022/08/21 12:53:14;;;;;;;2.50;2.00;;;28.30;91.60;;;;;;5034592;28;20202;-88
2022/08/21 12:55:42;;;;;;;4.28;2.42;;;28.20;92.10;;;;;;5035020;28;20277;-88
2022/08/21 12:58:21;;;;;;;2.30;2.05;;;28.20;91.90;;;;;;5034617;28;20182;-88
2022/08/21 13:00:58;;;;;;;3.63;2.13;;;28.60;92.40;;;;;;5034001;28;20643;-87
2022/08/21 13:03:24;;;;;;;4.35;2.40;;;28.70;88.20;;;;;;5034381;28;20237;-87
2022/08/21 13:05:51;;;;;;;3.47;2.42;;;28.50;91.90;;;;;;5034260;28;20185;-88
2022/08/21 13:08:20;;;;;;;2.63;2.10;;;28.50;92.20;;;;;;5034106;28;20210;-88
2022/08/21 13:10:49;;;;;;;3.72;2.22;;;28.30;91.40;;;;;;5034320;28;20232;-88